Armourdale, North Dakota
Current Conditions -  °F | °C
As of 8:15 AM on Monday 24 Nov 2014 (Local Time) from K06D Reporting Station
Clear Clear  
Wind Chill: -21°   Ceiling: Unl
Heat Index:   Visibility: 10mi
Dew Point: -2°   Wind: 23mph
Humidity: 85%   Direction: 330°NNW
Pressure: 29.8"   Gusts: NA
Location:  48.8584°N, 99.1311°W
Report Text: K06D 241415Z AUTO 33020KT 10SM CLR M17/M19 A2980 RMK AO2
Loading
Personal Weather Stations






























Interactive Weather Map New forecast layout! Learn more

10-Day Weather Forecast

Advertisements
Track Severe Weather on mobile